메인 페이지
METAR-TAF:

METAR-TAF

공항 :

카이로 국제공항

카이로, 이집트

위도: 30-08N, 경도: 031-24E, 고도: 64m

현재 날씨관측

예보는 39분 전, 09:00시(UTC)에 발표되었습니다.
6kt
온도 33°C
습도 32%
기압 1014 hPa
시정 10km 이상
1500m 미만 상공 구름 및 적란운 없음

METAR: HECA 200900Z 01006KT CAVOK 33/14 Q1014 NOSIG

시각: 11:39 (09:39 UTC)

예보

예보는 4 시간 39분 전, 05:00시(UTC)에 발표되었습니다.
예보 대상 시간: 20일 06시부터 21일 12시까지 (UTC)
북동9kt
시정 10km 이상
1500m 미만 상공 구름 및 적란운 없음
일시적
20일 15시부터 20일 21시까지 (UTC)
12kt, 순간 최대 풍속 25kt
일시적
21일 00시부터 21일 06시까지 (UTC)
북동6kt
시정: 6000m

TAF: HECA 200500Z 2006/2112 04009KT CAVOK TEMPO 2015/2021 36012G25KT TEMPO 2100/2106 05006KT 6000 NSC

4,000개 이상의 공항 관측 자료 및 예보 (METAR 및 TAF 보고).

지도상에서 검색 가능한 기상관측소가 노란 점과 빨간 점으로 표시되어 있습니다.

기상관측소 명을 보려면 표시 위로 마우스를 이동하세요.

날씨 관측과 예보를 보려면 클릭하세요.

지도 변경 : 확대하려면 엑스 표시가 있는 녹색 버튼, 축소하려면 빼기 표시가 있는 녹색 버튼, 다음 페이지의 지도를 보려면 녹색 화살표를 클릭하세요.


METAR-TAF: